ENUH weather

Oslo Heliport, Ullevaal
Oslo, Oslo, Norway

Public forecast

Using degrees Celsius for public forecast. Weather courtesy of forecast.io.

Closest aviation weather report (METAR) to Oslo Heliport, Ullevaal

Closest report is Oslo, Fornebu Airport, 4.3 nm (8.0 km) SW. Retrieved 2020/06/03 14:50 UTC (28 minutes ago):

ENFB 031450Z AUTO 36031KT 9999NDV -SHRA OVC022/// 08/04 Q1011 W///S5

Closest aviation forecast (TAF) to Oslo Heliport, Ullevaal

Closest forecast is Oslo Gardermoen Airport, 18.9 nm (35.1 km) NE. Retrieved 2020/06/03 12:57 UTC (2 hours ago):

TAF ENGM 031100Z 0312/0412 16010KT 9999 FEW040 SCT080 PROB40 TEMPO 0314/0406 TSRA SCT040CB BKN060 TEMPO 0321/0406 06005KT